createdAt,value
2022-09-11T00:01:42.225Z,100.00
2022-09-11T00:04:27.150Z,100.00
2022-09-11T00:07:12.040Z,100.00
2022-09-11T00:09:57.338Z,100.00
2022-09-11T00:12:42.279Z,100.00
2022-09-11T00:15:27.653Z,100.00
2022-09-11T00:18:14.801Z,100.00
2022-09-11T00:20:59.942Z,100.00
2022-09-11T00:23:45.799Z,100.00
2022-09-11T00:26:31.389Z,100.00
2022-09-11T00:29:16.665Z,100.00
2022-09-11T00:32:02.331Z,100.00
2022-09-11T00:34:47.508Z,100.00
2022-09-11T00:37:32.489Z,100.00
2022-09-11T00:40:18.919Z,100.00
2022-09-11T00:43:03.721Z,100.00
2022-09-11T00:45:55.560Z,100.00
2022-09-11T00:48:41.029Z,100.00
2022-09-11T00:51:32.195Z,100.00
2022-09-11T00:54:21.420Z,100.00
2022-09-11T00:57:08.190Z,100.00
2022-09-11T00:59:55.413Z,100.00
2022-09-11T01:02:45.991Z,100.00
2022-09-11T01:05:35.231Z,100.00
2022-09-11T01:08:20.884Z,100.00
2022-09-11T01:11:44.313Z,100.00
2022-09-11T01:14:45.434Z,100.00
2022-09-11T01:17:52.358Z,100.00
2022-09-11T01:21:15.516Z,100.00
2022-09-11T01:24:16.264Z,100.00
2022-09-11T01:27:41.448Z,100.00
2022-09-11T01:30:34.165Z,100.00
2022-09-11T01:33:37.424Z,100.00
2022-09-11T01:36:50.655Z,100.00
2022-09-11T01:39:44.636Z,100.00
2022-09-11T01:42:33.959Z,100.00
2022-09-11T01:45:20.519Z,100.00
2022-09-11T01:48:07.906Z,100.00
2022-09-11T01:50:55.433Z,100.00
2022-09-11T01:53:45.859Z,100.00
2022-09-11T01:56:41.147Z,100.00
2022-09-11T01:59:35.782Z,100.00
2022-09-11T02:02:27.644Z,100.00
2022-09-11T02:05:20.425Z,100.00
2022-09-11T02:08:15.253Z,100.00
2022-09-11T02:11:07.430Z,100.00
2022-09-11T02:14:04.116Z,100.00
2022-09-11T02:17:08.372Z,100.00
2022-09-11T02:19:56.224Z,100.00
2022-09-11T02:22:42.015Z,100.00
2022-09-11T02:25:27.585Z,100.00
2022-09-11T02:28:14.270Z,100.00
2022-09-11T02:30:59.724Z,100.00
2022-09-11T02:33:45.233Z,100.00
2022-09-11T02:36:36.544Z,100.00
2022-09-11T02:39:33.501Z,100.00
2022-09-11T02:42:57.818Z,100.00
2022-09-11T02:46:17.918Z,100.00
2022-09-11T02:49:16.246Z,100.00
2022-09-11T02:52:18.247Z,100.00
2022-09-11T02:55:19.360Z,100.00
2022-09-11T02:58:30.595Z,100.00
2022-09-11T03:01:15.913Z,100.00
2022-09-11T03:04:01.489Z,100.00
2022-09-11T03:06:46.812Z,100.00
2022-09-11T03:09:32.062Z,100.00
2022-09-11T03:12:17.457Z,100.00
2022-09-11T03:15:02.330Z,100.00
2022-09-11T03:17:47.344Z,100.00
2022-09-11T03:20:32.060Z,100.00
2022-09-11T03:23:16.967Z,100.00
2022-09-11T03:26:02.258Z,100.00
2022-09-11T03:28:47.172Z,100.00
2022-09-11T03:31:34.419Z,100.00
2022-09-11T03:34:21.387Z,100.00
2022-09-11T03:37:06.361Z,100.00
2022-09-11T03:39:51.715Z,100.00
2022-09-11T03:42:37.212Z,100.00
2022-09-11T03:45:22.740Z,100.00
2022-09-11T03:48:08.086Z,100.00
2022-09-11T03:50:53.618Z,100.00
2022-09-11T03:53:38.763Z,100.00
2022-09-11T03:56:24.018Z,100.00
2022-09-11T03:59:09.874Z,100.00
2022-09-11T04:01:55.071Z,100.00
2022-09-11T04:04:39.956Z,100.00
2022-09-11T04:07:25.180Z,100.00
2022-09-11T04:10:10.525Z,100.00
2022-09-11T04:12:55.626Z,100.00
2022-09-11T04:15:41.047Z,100.00
2022-09-11T04:18:26.160Z,100.00
2022-09-11T04:21:13.863Z,100.00
2022-09-11T04:23:58.708Z,100.00
2022-09-11T04:26:43.429Z,100.00
2022-09-11T04:29:28.854Z,100.00
2022-09-11T04:32:13.770Z,100.00
2022-09-11T04:34:58.650Z,100.00
2022-09-11T04:37:43.811Z,100.00
2022-09-11T04:40:29.177Z,100.00
2022-09-11T04:43:14.255Z,100.00
2022-09-11T04:46:04.121Z,100.00
2022-09-11T04:48:58.539Z,100.00
2022-09-11T04:51:44.154Z,100.00
2022-09-11T04:54:29.279Z,100.00
2022-09-11T04:57:14.085Z,100.00
2022-09-11T04:59:59.367Z,100.00
2022-09-11T05:02:44.427Z,100.00
2022-09-11T05:05:29.652Z,100.00
2022-09-11T05:08:14.693Z,100.00
2022-09-11T05:11:06.176Z,100.00
2022-09-11T05:13:51.218Z,100.00
2022-09-11T05:16:36.742Z,100.00
2022-09-11T05:19:22.173Z,100.00
2022-09-11T05:22:07.325Z,100.00
2022-09-11T05:24:52.427Z,100.00
2022-09-11T05:27:37.278Z,100.00
2022-09-11T05:30:22.184Z,100.00
2022-09-11T05:33:07.263Z,100.00
2022-09-11T05:35:54.292Z,100.00
2022-09-11T05:38:40.297Z,100.00
2022-09-11T05:41:25.461Z,100.00
2022-09-11T05:44:10.631Z,100.00
2022-09-11T05:46:56.154Z,100.00
2022-09-11T05:49:41.450Z,100.00
2022-09-11T05:52:27.562Z,100.00
2022-09-11T05:55:12.375Z,100.00
2022-09-11T05:57:57.281Z,100.00
2022-09-11T06:00:43.064Z,100.00
2022-09-11T06:03:30.258Z,100.00
2022-09-11T06:06:17.693Z,100.00
2022-09-11T06:09:02.880Z,100.00
2022-09-11T06:11:48.113Z,100.00
2022-09-11T06:14:33.137Z,100.00
2022-09-11T06:17:18.564Z,100.00
2022-09-11T06:20:04.240Z,100.00
2022-09-11T06:22:49.632Z,100.00
2022-09-11T06:25:34.664Z,100.00
2022-09-11T06:28:23.799Z,100.00
2022-09-11T06:31:14.504Z,100.00
2022-09-11T06:33:59.406Z,100.00
2022-09-11T06:36:49.863Z,100.00
2022-09-11T06:39:37.030Z,100.00
2022-09-11T06:42:22.315Z,100.00
2022-09-11T06:45:08.244Z,100.00
2022-09-11T06:47:53.592Z,100.00
2022-09-11T06:50:38.943Z,100.00
2022-09-11T06:53:23.823Z,100.00
2022-09-11T06:56:12.119Z,100.00
2022-09-11T06:58:57.059Z,100.00
2022-09-11T07:01:42.518Z,100.00
2022-09-11T07:04:27.714Z,100.00
2022-09-11T07:07:12.654Z,100.00
2022-09-11T07:09:58.084Z,100.00
2022-09-11T07:12:43.218Z,100.00
2022-09-11T07:15:28.352Z,100.00
2022-09-11T07:18:13.863Z,100.00
2022-09-11T07:20:59.211Z,100.00
2022-09-11T07:23:49.487Z,100.00
2022-09-11T07:26:35.286Z,100.00
2022-09-11T07:29:20.301Z,100.00
2022-09-11T07:32:05.777Z,100.00
2022-09-11T07:34:51.073Z,100.00
2022-09-11T07:37:36.399Z,100.00
2022-09-11T07:40:21.280Z,100.00
2022-09-11T07:43:06.878Z,100.00
2022-09-11T07:45:55.436Z,100.00
2022-09-11T07:48:41.381Z,100.00
2022-09-11T07:51:26.324Z,100.00
2022-09-11T07:54:11.210Z,100.00
2022-09-11T07:56:56.071Z,100.00
2022-09-11T07:59:40.941Z,100.00
2022-09-11T08:02:26.593Z,100.00
2022-09-11T08:05:11.625Z,100.00
2022-09-11T08:07:56.646Z,100.00
2022-09-11T08:10:41.996Z,100.00
2022-09-11T08:13:27.325Z,100.00
2022-09-11T08:16:12.758Z,100.00
2022-09-11T08:18:57.905Z,100.00
2022-09-11T08:21:43.650Z,100.00
2022-09-11T08:24:28.693Z,100.00
2022-09-11T08:27:13.666Z,100.00
2022-09-11T08:29:58.971Z,100.00
2022-09-11T08:32:44.486Z,100.00
2022-09-11T08:35:29.836Z,100.00
2022-09-11T08:38:15.164Z,100.00
2022-09-11T08:41:09.629Z,100.00
2022-09-11T08:44:02.835Z,100.00
2022-09-11T08:46:53.894Z,100.00
2022-09-11T08:49:44.066Z,100.00
2022-09-11T08:52:29.718Z,100.00
2022-09-11T08:55:20.800Z,100.00
2022-09-11T08:58:24.637Z,100.00
2022-09-11T09:01:39.847Z,100.00
2022-09-11T09:04:38.099Z,100.00
2022-09-11T09:07:57.436Z,100.00
2022-09-11T09:10:53.241Z,100.00
2022-09-11T09:13:51.605Z,100.00
2022-09-11T09:16:53.473Z,100.00
2022-09-11T09:19:59.694Z,100.00
2022-09-11T09:22:52.142Z,100.00
2022-09-11T09:25:41.895Z,100.00
2022-09-11T09:28:42.549Z,100.00
2022-09-11T09:31:31.113Z,100.00
2022-09-11T09:34:19.538Z,100.00
2022-09-11T09:37:23.783Z,100.00
2022-09-11T09:40:10.366Z,100.00
2022-09-11T09:43:17.659Z,100.00
2022-09-11T09:46:13.249Z,100.00
2022-09-11T09:48:58.798Z,100.00
2022-09-11T09:51:43.821Z,100.00
2022-09-11T09:54:31.684Z,100.00
2022-09-11T09:57:18.519Z,100.00
2022-09-11T10:00:16.002Z,100.00
2022-09-11T10:03:18.434Z,100.00
2022-09-11T10:06:05.167Z,100.00
2022-09-11T10:09:00.087Z,100.00
2022-09-11T10:11:52.945Z,100.00
2022-09-11T10:14:52.361Z,100.00
2022-09-11T10:17:37.619Z,100.00
2022-09-11T10:20:24.736Z,100.00
2022-09-11T10:23:27.267Z,100.00
2022-09-11T10:26:19.283Z,100.00
2022-09-11T10:29:24.824Z,100.00
2022-09-11T10:32:17.250Z,100.00
2022-09-11T10:35:08.981Z,100.00
2022-09-11T10:38:14.960Z,100.00
2022-09-11T10:41:20.237Z,100.00
2022-09-11T10:44:15.873Z,100.00
2022-09-11T10:47:15.515Z,100.00
2022-09-11T10:50:23.080Z,100.00
2022-09-11T10:53:23.182Z,100.00
2022-09-11T10:56:09.555Z,100.00
2022-09-11T10:59:02.861Z,100.00
2022-09-11T11:01:49.422Z,100.00
2022-09-11T11:04:34.455Z,100.00
2022-09-11T11:07:34.628Z,100.00
2022-09-11T11:10:33.322Z,100.00
2022-09-11T11:13:43.488Z,100.00
2022-09-11T11:16:35.093Z,100.00
2022-09-11T11:19:48.425Z,100.00
2022-09-11T11:23:11.258Z,100.00
2022-09-11T11:26:04.664Z,100.00
2022-09-11T11:29:18.653Z,100.00
2022-09-11T11:32:15.737Z,100.00
2022-09-11T11:35:42.959Z,99.87
2022-09-11T11:38:36.894Z,98.52
2022-09-11T11:41:26.666Z,96.60
2022-09-11T11:44:17.132Z,95.36
2022-09-11T11:47:06.352Z,96.25
2022-09-11T11:50:31.862Z,95.11
2022-09-11T11:53:24.463Z,92.20
2022-09-11T11:56:37.337Z,89.02
2022-09-11T11:59:35.775Z,89.96
2022-09-11T12:02:27.584Z,86.51
2022-09-11T12:05:24.655Z,85.35
2022-09-11T12:08:14.633Z,85.02
2022-09-11T12:11:05.085Z,82.41
2022-09-11T12:13:50.044Z,82.69
2022-09-11T12:16:35.726Z,82.40
2022-09-11T12:19:23.519Z,83.13
2022-09-11T12:22:12.923Z,84.56
2022-09-11T12:24:57.874Z,85.87
2022-09-11T12:27:43.063Z,87.50
2022-09-11T12:30:28.897Z,84.36
2022-09-11T12:33:39.467Z,77.20
2022-09-11T12:36:33.155Z,75.39
2022-09-11T12:39:26.279Z,71.87
2022-09-11T12:42:31.671Z,74.82
2022-09-11T12:45:35.417Z,69.67
2022-09-11T12:48:24.491Z,64.91
2022-09-11T12:51:21.848Z,63.87
2022-09-11T12:54:17.562Z,67.99
2022-09-11T12:57:09.865Z,66.28
2022-09-11T13:00:00.413Z,71.30
2022-09-11T13:02:53.242Z,74.51
2022-09-11T13:05:39.951Z,71.59
2022-09-11T13:08:28.701Z,73.01
2022-09-11T13:11:40.355Z,75.70
2022-09-11T13:14:28.213Z,75.15
2022-09-11T13:17:16.102Z,74.57
2022-09-11T13:20:07.547Z,73.04
2022-09-11T13:22:58.259Z,70.09
2022-09-11T13:25:44.111Z,72.99
2022-09-11T13:28:29.675Z,73.30
2022-09-11T13:31:18.820Z,71.04
2022-09-11T13:34:06.796Z,71.24
2022-09-11T13:36:56.479Z,73.31
2022-09-11T13:39:43.153Z,76.25
2022-09-11T13:42:28.959Z,74.98
2022-09-11T13:45:17.533Z,76.08
2022-09-11T13:48:13.061Z,75.91
2022-09-11T13:50:58.604Z,73.21
2022-09-11T13:53:46.066Z,75.89
2022-09-11T13:56:40.120Z,76.30
2022-09-11T13:59:40.078Z,75.40
2022-09-11T14:02:34.402Z,74.10
2022-09-11T14:05:25.536Z,73.11
2022-09-11T14:08:29.051Z,73.25
2022-09-11T14:11:22.714Z,72.42
2022-09-11T14:14:13.331Z,71.55
2022-09-11T14:16:59.999Z,72.74
2022-09-11T14:19:45.665Z,73.97
2022-09-11T14:22:32.104Z,74.98
2022-09-11T14:25:23.009Z,73.03
2022-09-11T14:28:35.638Z,72.29
2022-09-11T14:31:31.363Z,70.85
2022-09-11T14:34:29.826Z,70.92
2022-09-11T14:37:16.873Z,73.82
2022-09-11T14:40:13.792Z,72.98
2022-09-11T14:42:59.210Z,72.07
2022-09-11T14:45:44.366Z,72.10
2022-09-11T14:48:31.112Z,72.42
2022-09-11T14:51:16.514Z,71.51
2022-09-11T14:54:01.553Z,70.90
2022-09-11T14:56:46.646Z,71.76
2022-09-11T14:59:31.536Z,71.61
2022-09-11T15:02:22.675Z,71.27
2022-09-11T15:05:15.556Z,72.28
2022-09-11T15:08:00.699Z,71.61
2022-09-11T15:10:47.401Z,71.22
2022-09-11T15:13:32.541Z,71.63
2022-09-11T15:16:17.553Z,73.34
2022-09-11T15:19:03.342Z,71.42
2022-09-11T15:21:48.365Z,71.29
2022-09-11T15:24:34.376Z,72.02
2022-09-11T15:27:19.703Z,69.08
2022-09-11T15:30:05.728Z,70.23
2022-09-11T15:32:50.950Z,69.38
2022-09-11T15:35:36.460Z,70.77
2022-09-11T15:38:21.874Z,69.30
2022-09-11T15:41:07.778Z,69.51
2022-09-11T15:43:52.704Z,69.37
2022-09-11T15:46:37.712Z,71.22
2022-09-11T15:49:23.801Z,70.09
2022-09-11T15:52:08.650Z,71.09
2022-09-11T15:54:53.585Z,70.50
2022-09-11T15:57:38.722Z,71.62
2022-09-11T16:00:23.550Z,71.12
2022-09-11T16:03:08.644Z,69.54
2022-09-11T16:05:53.680Z,68.06
2022-09-11T16:08:38.959Z,69.45
2022-09-11T16:11:25.317Z,69.20
2022-09-11T16:14:24.281Z,68.46
2022-09-11T16:17:09.749Z,67.50
2022-09-11T16:19:55.153Z,67.06
2022-09-11T16:22:40.466Z,67.12
2022-09-11T16:25:25.352Z,67.34
2022-09-11T16:28:10.699Z,67.32
2022-09-11T16:30:56.308Z,66.29
2022-09-11T16:33:43.444Z,64.64
2022-09-11T16:36:28.803Z,65.22
2022-09-11T16:39:16.010Z,66.27
2022-09-11T16:42:01.377Z,65.82
2022-09-11T16:44:46.434Z,66.59
2022-09-11T16:47:31.456Z,68.57
2022-09-11T16:50:16.320Z,67.56
2022-09-11T16:53:01.642Z,68.10
2022-09-11T16:55:47.115Z,68.54
2022-09-11T16:58:32.974Z,68.68
2022-09-11T17:01:21.269Z,69.72
2022-09-11T17:04:06.592Z,71.36
2022-09-11T17:06:52.093Z,72.66
2022-09-11T17:09:37.562Z,72.63
2022-09-11T17:12:22.519Z,74.07
2022-09-11T17:15:08.231Z,74.86
2022-09-11T17:17:53.595Z,75.41
2022-09-11T17:20:39.194Z,76.21
2022-09-11T17:23:25.433Z,76.29
2022-09-11T17:26:13.782Z,76.69
2022-09-11T17:29:00.918Z,77.56
2022-09-11T17:31:46.062Z,77.51
2022-09-11T17:34:31.378Z,78.37
2022-09-11T17:37:17.074Z,79.14
2022-09-11T17:40:03.027Z,79.34
2022-09-11T17:42:48.360Z,79.68
2022-09-11T17:45:33.574Z,80.26
2022-09-11T17:48:19.661Z,80.52
2022-09-11T17:51:08.515Z,80.73
2022-09-11T17:53:56.095Z,82.23
2022-09-11T17:56:41.281Z,82.31
2022-09-11T17:59:26.575Z,82.79
2022-09-11T18:02:12.742Z,83.46
2022-09-11T18:04:58.077Z,84.21
2022-09-11T18:07:43.271Z,84.12
2022-09-11T18:10:28.390Z,84.26
2022-09-11T18:13:13.619Z,84.41
2022-09-11T18:15:59.157Z,84.04
2022-09-11T18:18:44.535Z,84.87
2022-09-11T18:21:30.537Z,84.68
2022-09-11T18:24:16.623Z,84.96
2022-09-11T18:27:02.051Z,85.34
2022-09-11T18:29:47.530Z,85.45
2022-09-11T18:32:33.144Z,85.90
2022-09-11T18:35:18.283Z,86.32
2022-09-11T18:38:04.122Z,87.22
2022-09-11T18:40:54.307Z,87.68
2022-09-11T18:43:39.511Z,88.11
2022-09-11T18:46:25.381Z,92.27
2022-09-11T18:49:13.732Z,92.41
2022-09-11T18:52:00.442Z,93.99
2022-09-11T18:54:45.722Z,94.38
2022-09-11T18:57:31.078Z,94.96
2022-09-11T19:00:17.454Z,94.24
2022-09-11T19:03:02.600Z,94.86
2022-09-11T19:05:48.460Z,92.63
2022-09-11T19:08:33.841Z,92.55
2022-09-11T19:11:27.492Z,93.15
2022-09-11T19:14:13.447Z,94.86
2022-09-11T19:17:00.239Z,96.23
2022-09-11T19:19:45.466Z,96.93
2022-09-11T19:22:30.791Z,96.02
2022-09-11T19:25:15.912Z,95.59
2022-09-11T19:28:01.384Z,96.79
2022-09-11T19:30:57.235Z,97.20
2022-09-11T19:33:43.276Z,98.87
2022-09-11T19:36:34.522Z,98.65
2022-09-11T19:39:19.816Z,98.99
2022-09-11T19:42:05.800Z,99.78
2022-09-11T19:44:55.600Z,100.00
2022-09-11T19:47:41.279Z,100.00
2022-09-11T19:50:26.362Z,100.00
2022-09-11T19:53:11.699Z,100.00
2022-09-11T19:55:57.784Z,100.00
2022-09-11T19:58:42.626Z,100.00
2022-09-11T20:01:29.231Z,100.00
2022-09-11T20:04:14.654Z,100.00
2022-09-11T20:07:00.559Z,100.00
2022-09-11T20:09:46.177Z,100.00
2022-09-11T20:12:31.043Z,100.00
2022-09-11T20:15:16.497Z,100.00
2022-09-11T20:18:01.552Z,100.00
2022-09-11T20:20:47.039Z,100.00
2022-09-11T20:23:32.018Z,100.00
2022-09-11T20:26:19.500Z,100.00
2022-09-11T20:29:08.617Z,100.00
2022-09-11T20:31:54.051Z,100.00
2022-09-11T20:34:39.503Z,100.00
2022-09-11T20:37:24.637Z,100.00
2022-09-11T20:40:10.253Z,100.00
2022-09-11T20:42:55.387Z,100.00
2022-09-11T20:45:40.181Z,100.00
2022-09-11T20:48:25.563Z,100.00
2022-09-11T20:51:12.441Z,100.00
2022-09-11T20:53:57.648Z,100.00
2022-09-11T20:56:42.590Z,100.00
2022-09-11T20:59:28.119Z,100.00
2022-09-11T21:02:13.513Z,100.00
2022-09-11T21:05:00.560Z,100.00
2022-09-11T21:07:46.196Z,100.00
2022-09-11T21:10:35.275Z,100.00
2022-09-11T21:13:20.481Z,100.00
2022-09-11T21:16:11.225Z,100.00
2022-09-11T21:18:58.603Z,100.00
2022-09-11T21:21:43.903Z,100.00
2022-09-11T21:24:28.811Z,100.00
2022-09-11T21:27:13.670Z,100.00
2022-09-11T21:30:00.269Z,100.00
2022-09-11T21:32:45.569Z,100.00
2022-09-11T21:35:31.009Z,100.00
2022-09-11T21:38:15.886Z,100.00
2022-09-11T21:41:02.298Z,100.00
2022-09-11T21:43:47.335Z,100.00
2022-09-11T21:46:33.263Z,100.00
2022-09-11T21:49:18.723Z,100.00
2022-09-11T21:52:03.945Z,100.00
2022-09-11T21:54:49.301Z,100.00
2022-09-11T21:57:34.409Z,100.00
2022-09-11T22:00:19.597Z,100.00
2022-09-11T22:03:04.897Z,100.00
2022-09-11T22:05:49.913Z,100.00
2022-09-11T22:08:34.815Z,100.00
2022-09-11T22:11:20.709Z,100.00
2022-09-11T22:14:05.995Z,100.00
2022-09-11T22:16:51.432Z,100.00
2022-09-11T22:19:36.794Z,100.00
2022-09-11T22:22:22.264Z,100.00
2022-09-11T22:25:08.139Z,100.00
2022-09-11T22:27:53.246Z,100.00
2022-09-11T22:30:44.086Z,100.00
2022-09-11T22:33:29.235Z,100.00
2022-09-11T22:36:17.120Z,100.00
2022-09-11T22:39:02.581Z,100.00
2022-09-11T22:41:47.855Z,100.00
2022-09-11T22:44:33.067Z,100.00
2022-09-11T22:47:18.026Z,100.00
2022-09-11T22:50:03.685Z,100.00
2022-09-11T22:52:48.565Z,100.00
2022-09-11T22:55:34.100Z,100.00
2022-09-11T22:58:18.899Z,100.00
2022-09-11T23:01:06.252Z,100.00
2022-09-11T23:03:54.528Z,100.00
2022-09-11T23:06:39.631Z,100.00
2022-09-11T23:09:24.599Z,100.00
2022-09-11T23:12:10.113Z,100.00
2022-09-11T23:14:55.426Z,100.00
2022-09-11T23:17:40.866Z,100.00
2022-09-11T23:20:26.627Z,100.00
2022-09-11T23:23:11.635Z,100.00
2022-09-11T23:25:56.678Z,100.00
2022-09-11T23:28:41.765Z,100.00
2022-09-11T23:31:32.554Z,100.00
2022-09-11T23:34:17.957Z,100.00
2022-09-11T23:37:03.280Z,100.00
2022-09-11T23:39:48.532Z,100.00
2022-09-11T23:42:34.080Z,100.00
2022-09-11T23:45:19.648Z,100.00
2022-09-11T23:48:04.900Z,100.00
2022-09-11T23:50:50.066Z,100.00
2022-09-11T23:53:35.052Z,100.00
2022-09-11T23:56:21.041Z,100.00
2022-09-11T23:59:06.106Z,100.00
